createdAt,value
2022-10-14T00:01:23.227Z,23.40
2022-10-14T00:03:54.261Z,23.50
2022-10-14T00:06:24.172Z,23.70
2022-10-14T00:08:53.696Z,23.20
2022-10-14T00:11:24.108Z,22.80
2022-10-14T00:13:55.476Z,22.50
2022-10-14T00:16:25.555Z,22.80
2022-10-14T00:18:53.539Z,23.20
2022-10-14T00:21:21.573Z,23.50
2022-10-14T00:23:49.611Z,23.70
2022-10-14T00:26:22.089Z,23.90
2022-10-14T00:28:50.802Z,24.00
2022-10-14T00:31:19.672Z,24.10
2022-10-14T00:33:49.160Z,23.90
2022-10-14T00:36:19.983Z,23.60
2022-10-14T00:38:48.599Z,23.70
2022-10-14T00:41:20.037Z,23.80
2022-10-14T00:44:01.027Z,23.80
2022-10-14T00:46:31.148Z,24.00
2022-10-14T00:49:06.362Z,24.10
2022-10-14T00:51:35.447Z,23.80
2022-10-14T00:54:04.134Z,23.70
2022-10-14T00:56:34.233Z,23.40
2022-10-14T00:59:05.227Z,23.30
2022-10-14T01:01:35.240Z,23.20
2022-10-14T01:04:03.199Z,23.60
2022-10-14T01:06:43.702Z,23.80
2022-10-14T01:09:19.377Z,23.90
2022-10-14T01:12:26.744Z,23.90
2022-10-14T01:14:59.645Z,24.00
2022-10-14T01:17:37.055Z,24.00
2022-10-14T01:20:42.493Z,24.00
2022-10-14T01:23:39.369Z,24.10
2022-10-14T01:26:25.659Z,24.10
2022-10-14T01:29:13.101Z,24.10
2022-10-14T01:31:46.764Z,23.90
2022-10-14T01:34:20.614Z,24.00
2022-10-14T01:36:56.820Z,24.20
2022-10-14T01:39:28.610Z,24.40
2022-10-14T01:42:02.004Z,24.40
2022-10-14T01:44:33.456Z,24.40
2022-10-14T01:47:05.574Z,24.50
2022-10-14T01:49:36.954Z,24.60
2022-10-14T01:52:27.963Z,24.70
2022-10-14T01:55:20.086Z,24.70
2022-10-14T01:58:10.879Z,24.40
2022-10-14T02:00:59.461Z,24.60
2022-10-14T02:03:49.122Z,24.60
2022-10-14T02:06:40.969Z,24.70
2022-10-14T02:09:39.145Z,24.90
2022-10-14T02:12:21.945Z,24.90
2022-10-14T02:14:57.068Z,25.00
2022-10-14T02:17:30.806Z,25.10
2022-10-14T02:20:09.070Z,25.00
2022-10-14T02:22:44.335Z,24.40
2022-10-14T02:25:28.833Z,24.00
2022-10-14T02:27:58.327Z,24.40
2022-10-14T02:30:28.303Z,23.80
2022-10-14T02:33:00.042Z,23.50
2022-10-14T02:35:32.288Z,24.00
2022-10-14T02:38:01.817Z,24.30
2022-10-14T02:40:35.146Z,24.30
2022-10-14T02:43:03.136Z,24.50
2022-10-14T02:45:31.184Z,24.60
2022-10-14T02:48:00.985Z,24.70
2022-10-14T02:50:30.289Z,24.70
2022-10-14T02:52:58.432Z,24.70
2022-10-14T02:55:26.387Z,24.70
2022-10-14T02:57:54.509Z,24.60
2022-10-14T03:00:23.087Z,24.60
2022-10-14T03:02:53.939Z,24.70
2022-10-14T03:05:22.088Z,24.60
2022-10-14T03:07:52.199Z,24.60
2022-10-14T03:10:21.512Z,24.50
2022-10-14T03:12:49.902Z,24.50
2022-10-14T03:15:27.182Z,24.40
2022-10-14T03:17:57.310Z,24.50
2022-10-14T03:20:34.756Z,24.60
2022-10-14T03:23:04.437Z,24.60
2022-10-14T03:25:35.555Z,24.50
2022-10-14T03:28:08.080Z,24.50
2022-10-14T03:30:43.956Z,24.20
2022-10-14T03:33:20.494Z,24.00
2022-10-14T03:36:11.870Z,24.10
2022-10-14T03:38:48.949Z,24.30
2022-10-14T03:41:29.608Z,24.20
2022-10-14T03:43:58.222Z,24.10
2022-10-14T03:46:26.519Z,24.00
2022-10-14T03:48:54.622Z,23.80
2022-10-14T03:51:23.924Z,23.70
2022-10-14T03:53:57.475Z,23.50
2022-10-14T03:56:29.643Z,23.30
2022-10-14T03:58:57.621Z,23.10
2022-10-14T04:01:26.698Z,23.10
2022-10-14T04:04:09.023Z,22.90
2022-10-14T04:06:38.054Z,23.50
2022-10-14T04:09:09.193Z,23.70
2022-10-14T04:11:40.436Z,23.70
2022-10-14T04:14:12.152Z,23.80
2022-10-14T04:16:49.849Z,24.00
2022-10-14T04:19:18.975Z,23.70
2022-10-14T04:21:46.969Z,23.50
2022-10-14T04:24:19.789Z,23.20
2022-10-14T04:26:53.785Z,23.30
2022-10-14T04:29:34.817Z,23.50
2022-10-14T04:32:08.888Z,23.60
2022-10-14T04:34:37.592Z,24.00
2022-10-14T04:37:07.506Z,24.20
2022-10-14T04:39:57.048Z,24.00
2022-10-14T04:42:25.123Z,24.30
2022-10-14T04:44:59.032Z,24.20
2022-10-14T04:47:39.163Z,24.50
2022-10-14T04:50:08.513Z,24.70
2022-10-14T04:52:38.014Z,24.70
2022-10-14T04:55:14.678Z,24.60
2022-10-14T04:57:44.478Z,24.70
2022-10-14T05:00:13.977Z,24.90
2022-10-14T05:02:50.538Z,25.00
2022-10-14T05:05:20.593Z,25.10
2022-10-14T05:07:52.944Z,25.20
2022-10-14T05:10:31.414Z,25.10
2022-10-14T05:13:00.186Z,24.90
2022-10-14T05:15:32.870Z,25.00
2022-10-14T05:18:07.527Z,25.20
2022-10-14T05:20:49.430Z,25.20
2022-10-14T05:23:19.623Z,25.10
2022-10-14T05:25:48.938Z,25.30
2022-10-14T05:28:17.724Z,25.40
2022-10-14T05:30:46.701Z,25.30
2022-10-14T05:33:14.675Z,25.20
2022-10-14T05:35:58.633Z,25.30
2022-10-14T05:38:31.803Z,25.30
2022-10-14T05:41:02.903Z,25.20
2022-10-14T05:43:32.744Z,25.30
2022-10-14T05:46:03.376Z,25.30
2022-10-14T05:48:36.089Z,25.20
2022-10-14T05:51:05.257Z,24.90
2022-10-14T05:53:39.876Z,25.00
2022-10-14T05:56:14.606Z,24.60
2022-10-14T05:58:43.042Z,24.60
2022-10-14T06:01:12.344Z,24.50
2022-10-14T06:03:42.659Z,24.60
2022-10-14T06:06:15.199Z,24.60
2022-10-14T06:08:44.231Z,24.70
2022-10-14T06:11:13.953Z,24.90
2022-10-14T06:13:42.180Z,24.90
2022-10-14T06:16:11.873Z,25.00
2022-10-14T06:18:42.651Z,25.10
2022-10-14T06:21:12.857Z,25.30
2022-10-14T06:23:40.897Z,25.40
2022-10-14T06:26:09.955Z,25.50
2022-10-14T06:28:39.335Z,25.70
2022-10-14T06:31:07.965Z,25.80
2022-10-14T06:33:36.292Z,26.00
2022-10-14T06:36:05.638Z,26.10
2022-10-14T06:38:34.122Z,26.30
2022-10-14T06:41:03.620Z,26.40
2022-10-14T06:43:35.120Z,26.40
2022-10-14T06:46:04.911Z,26.60
2022-10-14T06:48:33.053Z,26.60
2022-10-14T06:51:01.704Z,26.70
2022-10-14T06:53:30.252Z,26.80
2022-10-14T06:55:59.846Z,26.90
2022-10-14T06:58:28.082Z,27.00
2022-10-14T07:03:30.433Z,27.10
2022-10-14T07:05:58.429Z,27.00
2022-10-14T07:08:26.370Z,27.10
2022-10-14T07:10:54.331Z,27.20
2022-10-14T07:13:22.426Z,27.30
2022-10-14T07:15:52.343Z,27.40
2022-10-14T07:18:21.077Z,27.50
2022-10-14T07:20:50.665Z,27.50
2022-10-14T07:23:18.767Z,27.60
2022-10-14T07:25:46.698Z,27.60
2022-10-14T07:28:14.756Z,27.50
2022-10-14T07:30:42.709Z,27.50
2022-10-14T07:33:10.719Z,27.60
2022-10-14T07:35:39.213Z,27.70
2022-10-14T07:38:08.514Z,27.70
2022-10-14T07:40:37.066Z,27.80
2022-10-14T07:43:05.025Z,27.90
2022-10-14T07:45:35.731Z,27.90
2022-10-14T07:48:04.083Z,27.90
2022-10-14T07:50:32.569Z,28.10
2022-10-14T07:53:01.578Z,28.00
2022-10-14T07:55:30.981Z,27.90
2022-10-14T07:57:59.717Z,28.00
2022-10-14T08:00:27.664Z,28.00
2022-10-14T08:02:55.710Z,28.00
2022-10-14T08:05:37.754Z,27.90
2022-10-14T08:08:06.738Z,28.00
2022-10-14T08:10:36.615Z,28.00
2022-10-14T08:13:04.952Z,28.10
2022-10-14T08:15:38.000Z,28.10
2022-10-14T08:18:06.588Z,28.10
2022-10-14T08:20:34.959Z,28.10
2022-10-14T08:23:03.496Z,28.10
2022-10-14T08:25:31.816Z,28.10
2022-10-14T08:28:01.061Z,28.20
2022-10-14T08:30:29.051Z,28.20
2022-10-14T08:32:56.966Z,28.30
2022-10-14T08:35:24.878Z,28.40
2022-10-14T08:37:59.931Z,28.40
2022-10-14T08:40:29.645Z,28.40
2022-10-14T08:43:04.688Z,28.50
2022-10-14T08:45:36.171Z,28.60
2022-10-14T08:48:13.035Z,28.70
2022-10-14T08:50:48.480Z,28.80
2022-10-14T08:53:20.888Z,28.80
2022-10-14T08:55:52.590Z,28.80
2022-10-14T09:00:55.903Z,29.00
2022-10-14T09:03:26.768Z,29.20
2022-10-14T09:05:59.703Z,29.20
2022-10-14T09:08:33.808Z,29.30
2022-10-14T09:11:02.512Z,29.30
2022-10-14T09:13:36.588Z,29.30
2022-10-14T09:16:13.352Z,29.20
2022-10-14T09:18:49.694Z,29.30
2022-10-14T09:21:47.956Z,29.40
2022-10-14T09:24:21.743Z,29.40
2022-10-14T09:26:53.298Z,29.50
2022-10-14T09:29:27.004Z,29.40
2022-10-14T09:31:58.688Z,29.50
2022-10-14T09:34:32.596Z,29.50
2022-10-14T09:37:12.883Z,29.60
2022-10-14T09:39:42.499Z,29.70
2022-10-14T09:42:18.932Z,29.60
2022-10-14T09:47:42.586Z,30.00
2022-10-14T09:50:14.601Z,30.00
2022-10-14T09:52:42.585Z,30.00
2022-10-14T09:55:23.969Z,30.10
2022-10-14T09:58:14.054Z,30.10
2022-10-14T10:00:43.447Z,30.20
2022-10-14T10:03:26.922Z,30.30
2022-10-14T10:06:06.012Z,30.40
2022-10-14T10:08:35.230Z,30.40
2022-10-14T10:11:06.909Z,30.40
2022-10-14T10:13:41.460Z,30.40
2022-10-14T10:16:21.425Z,30.50
2022-10-14T10:18:50.094Z,30.50
2022-10-14T10:21:20.951Z,30.50
2022-10-14T10:23:54.796Z,30.60
2022-10-14T10:26:27.054Z,30.60
2022-10-14T10:28:57.420Z,30.70
2022-10-14T10:31:47.065Z,30.80
2022-10-14T10:34:45.515Z,30.80
2022-10-14T10:37:28.190Z,30.80
2022-10-14T10:40:22.458Z,30.60
2022-10-14T10:43:00.677Z,30.70
2022-10-14T10:45:40.062Z,30.10
2022-10-14T10:48:21.012Z,29.90
2022-10-14T10:50:56.194Z,30.10
2022-10-14T10:53:46.463Z,29.70
2022-10-14T10:56:23.484Z,29.50
2022-10-14T10:59:02.047Z,30.00
2022-10-14T11:01:39.971Z,30.10
2022-10-14T11:04:30.937Z,30.00
2022-10-14T11:07:35.014Z,30.40
2022-10-14T11:10:33.130Z,30.10
2022-10-14T11:13:07.209Z,30.00
2022-10-14T11:15:47.052Z,30.00
2022-10-14T11:18:23.884Z,29.40
2022-10-14T11:21:05.663Z,29.60
2022-10-14T11:23:48.760Z,29.80
2022-10-14T11:29:18.698Z,30.20
2022-10-14T11:31:56.241Z,30.40
2022-10-14T11:34:39.000Z,30.60
2022-10-14T11:37:20.262Z,30.50
2022-10-14T11:39:51.227Z,30.20
2022-10-14T11:42:28.525Z,29.90
2022-10-14T11:45:23.719Z,30.00
2022-10-14T11:48:06.999Z,29.90
2022-10-14T11:50:41.050Z,29.90
2022-10-14T11:53:17.887Z,29.60
2022-10-14T11:55:50.802Z,29.00
2022-10-14T11:58:26.952Z,28.80
2022-10-14T12:00:58.466Z,29.00
2022-10-14T12:03:37.453Z,28.70
2022-10-14T12:06:13.881Z,28.70
2022-10-14T12:08:50.234Z,29.00
2022-10-14T12:11:28.921Z,29.00
2022-10-14T12:14:05.775Z,28.90
2022-10-14T12:16:34.525Z,29.10
2022-10-14T12:19:02.781Z,29.30
2022-10-14T12:21:36.678Z,29.50
2022-10-14T12:24:08.914Z,29.50
2022-10-14T12:26:53.246Z,29.60
2022-10-14T12:29:24.267Z,29.40
2022-10-14T12:32:08.695Z,29.30
2022-10-14T12:34:38.911Z,28.70
2022-10-14T12:37:52.045Z,28.60
2022-10-14T12:40:31.686Z,29.10
2022-10-14T12:43:23.530Z,28.90
2022-10-14T12:46:12.868Z,28.90
2022-10-14T12:48:50.285Z,28.70
2022-10-14T12:51:21.155Z,28.80
2022-10-14T12:53:53.741Z,28.90
2022-10-14T12:56:39.415Z,29.00
2022-10-14T12:59:09.765Z,28.90
2022-10-14T13:01:44.117Z,28.90
2022-10-14T13:04:20.047Z,28.70
2022-10-14T13:07:39.335Z,28.90
2022-10-14T13:10:46.961Z,28.70
2022-10-14T13:13:52.374Z,28.90
2022-10-14T13:16:58.757Z,29.10
2022-10-14T13:19:43.401Z,29.30
2022-10-14T13:22:35.998Z,29.30
2022-10-14T13:25:12.069Z,29.60
2022-10-14T13:27:50.138Z,29.70
2022-10-14T13:30:24.748Z,29.80
2022-10-14T13:32:59.298Z,29.90
2022-10-14T13:35:32.570Z,30.00
2022-10-14T13:38:03.665Z,30.10
2022-10-14T13:40:35.549Z,30.10
2022-10-14T13:43:09.177Z,30.10
2022-10-14T13:45:42.607Z,30.40
2022-10-14T13:48:15.115Z,30.40
2022-10-14T13:50:43.827Z,30.40
2022-10-14T13:53:17.420Z,30.40
2022-10-14T13:55:51.592Z,30.60
2022-10-14T13:58:23.811Z,30.40
2022-10-14T14:01:03.348Z,30.40
2022-10-14T14:03:35.092Z,30.20
2022-10-14T14:06:04.885Z,30.20
2022-10-14T14:08:41.142Z,29.70
2022-10-14T14:11:18.724Z,29.70
2022-10-14T14:14:00.830Z,29.30
2022-10-14T14:16:36.501Z,29.10
2022-10-14T14:19:09.518Z,29.20
2022-10-14T14:21:38.263Z,29.10
2022-10-14T14:24:17.763Z,28.90
2022-10-14T14:26:55.155Z,29.10
2022-10-14T14:29:29.211Z,29.30
2022-10-14T14:32:08.200Z,29.40
2022-10-14T14:34:39.261Z,29.50
2022-10-14T14:40:09.924Z,30.00
2022-10-14T14:42:41.334Z,30.00
2022-10-14T14:45:16.748Z,30.00
2022-10-14T14:47:46.804Z,30.10
2022-10-14T14:50:29.869Z,30.00
2022-10-14T14:53:02.785Z,30.20
2022-10-14T14:55:44.397Z,30.10
2022-10-14T14:58:24.126Z,30.20
2022-10-14T15:00:54.707Z,30.30
2022-10-14T15:03:26.237Z,30.40
2022-10-14T15:05:58.552Z,30.40
2022-10-14T15:08:29.800Z,30.30
2022-10-14T15:10:59.458Z,30.30
2022-10-14T15:13:36.279Z,30.20
2022-10-14T15:16:04.530Z,30.20
2022-10-14T15:18:37.399Z,30.10
2022-10-14T15:21:14.762Z,30.10
2022-10-14T15:24:00.297Z,29.90
2022-10-14T15:26:35.083Z,29.80
2022-10-14T15:29:18.634Z,29.70
2022-10-14T15:32:07.861Z,29.70
2022-10-14T15:34:39.006Z,29.70
2022-10-14T15:37:07.027Z,29.50
2022-10-14T15:39:35.251Z,29.50
2022-10-14T15:42:03.167Z,29.40
2022-10-14T15:44:32.430Z,29.30
2022-10-14T15:47:18.109Z,29.00
2022-10-14T15:49:48.320Z,28.90
2022-10-14T15:52:19.456Z,28.80
2022-10-14T15:54:50.823Z,28.50
2022-10-14T15:57:18.757Z,28.40
2022-10-14T15:59:50.748Z,28.20
2022-10-14T16:02:22.518Z,28.20
2022-10-14T16:05:19.411Z,28.00
2022-10-14T16:07:40.830Z,28.10
2022-10-14T16:10:13.048Z,28.10
2022-10-14T16:12:41.230Z,28.00
2022-10-14T16:15:33.152Z,27.60
2022-10-14T16:18:01.079Z,27.60
2022-10-14T16:20:31.414Z,27.40
2022-10-14T16:23:01.253Z,27.10
2022-10-14T16:25:35.006Z,26.90
2022-10-14T16:28:10.037Z,27.00
2022-10-14T16:30:40.239Z,27.10
2022-10-14T16:33:08.558Z,27.20
2022-10-14T16:35:37.943Z,27.20
2022-10-14T16:38:05.882Z,27.00
2022-10-14T16:40:36.734Z,26.70
2022-10-14T16:43:07.564Z,26.50
2022-10-14T16:45:35.622Z,26.50
2022-10-14T16:48:03.987Z,26.60
2022-10-14T16:50:32.206Z,26.30
2022-10-14T16:53:19.282Z,26.40
2022-10-14T16:55:47.214Z,26.50
2022-10-14T16:58:15.177Z,26.60
2022-10-14T17:00:43.098Z,26.70
2022-10-14T17:03:12.304Z,26.70
2022-10-14T17:05:40.538Z,26.70
2022-10-14T17:08:10.563Z,26.70
2022-10-14T17:10:39.989Z,26.70
2022-10-14T17:13:08.181Z,26.70
2022-10-14T17:15:39.377Z,26.60
2022-10-14T17:18:09.946Z,26.70
2022-10-14T17:20:40.167Z,26.70
2022-10-14T17:23:10.321Z,26.80
2022-10-14T17:25:46.162Z,26.30
2022-10-14T17:28:14.177Z,25.80
2022-10-14T17:30:42.885Z,25.60
2022-10-14T17:33:10.800Z,25.10
2022-10-14T17:35:38.761Z,25.30
2022-10-14T17:38:07.267Z,25.60
2022-10-14T17:40:35.470Z,25.40
2022-10-14T17:43:04.779Z,25.40
2022-10-14T17:45:32.735Z,25.20
2022-10-14T17:48:01.693Z,25.00
2022-10-14T17:50:30.822Z,25.20
2022-10-14T17:52:59.519Z,25.10
2022-10-14T17:55:27.473Z,25.00
2022-10-14T17:57:55.415Z,24.90
2022-10-14T18:00:26.866Z,25.20
2022-10-14T18:02:54.789Z,25.50
2022-10-14T18:05:24.456Z,25.30
2022-10-14T18:07:52.518Z,25.40
2022-10-14T18:10:20.578Z,25.30
2022-10-14T18:12:48.537Z,25.60
2022-10-14T18:15:16.751Z,25.90
2022-10-14T18:17:46.038Z,25.90
2022-10-14T18:20:14.275Z,26.10
2022-10-14T18:22:42.281Z,26.20
2022-10-14T18:25:10.720Z,26.30
2022-10-14T18:27:38.912Z,26.20
2022-10-14T18:30:08.401Z,25.80
2022-10-14T18:32:36.911Z,25.70
2022-10-14T18:35:07.106Z,26.00
2022-10-14T18:37:35.157Z,25.90
2022-10-14T18:40:03.079Z,26.20
2022-10-14T18:42:31.200Z,26.50
2022-10-14T18:44:59.729Z,26.50
2022-10-14T18:47:28.465Z,26.80
2022-10-14T18:49:59.562Z,26.90
2022-10-14T18:52:29.012Z,27.10
2022-10-14T18:54:57.937Z,27.00
2022-10-14T18:57:25.921Z,27.00
2022-10-14T18:59:53.850Z,26.90
2022-10-14T19:02:22.686Z,26.90
2022-10-14T19:04:51.150Z,27.00
2022-10-14T19:07:19.086Z,27.00
2022-10-14T19:09:48.718Z,27.00
2022-10-14T19:12:30.973Z,26.90
2022-10-14T19:14:59.272Z,26.70
2022-10-14T19:17:27.327Z,26.60
2022-10-14T19:19:55.321Z,26.60
2022-10-14T19:22:23.545Z,26.60
2022-10-14T19:24:53.311Z,26.30
2022-10-14T19:27:24.319Z,26.50
2022-10-14T19:29:57.517Z,26.60
2022-10-14T19:32:25.816Z,26.70
2022-10-14T19:34:53.735Z,26.80
2022-10-14T19:37:22.466Z,26.90
2022-10-14T19:39:53.179Z,27.00
2022-10-14T19:42:28.033Z,27.10
2022-10-14T19:44:56.242Z,27.00
2022-10-14T19:47:25.593Z,26.70
2022-10-14T19:49:56.743Z,26.30
2022-10-14T19:52:24.898Z,25.90
2022-10-14T19:54:54.567Z,25.50
2022-10-14T19:57:22.860Z,25.70
2022-10-14T19:59:51.372Z,25.90
2022-10-14T20:02:22.192Z,26.20
2022-10-14T20:04:50.435Z,26.50
2022-10-14T20:07:20.568Z,26.70
2022-10-14T20:09:58.094Z,26.70
2022-10-14T20:12:31.952Z,26.70
2022-10-14T20:15:00.175Z,26.30
2022-10-14T20:17:38.024Z,26.40
2022-10-14T20:20:06.978Z,26.40
2022-10-14T20:22:35.030Z,26.50
2022-10-14T20:25:02.989Z,26.30
2022-10-14T20:27:32.321Z,26.40
2022-10-14T20:30:00.553Z,26.70
2022-10-14T20:32:28.606Z,26.80
2022-10-14T20:34:56.551Z,26.90
2022-10-14T20:37:27.376Z,26.90
2022-10-14T20:39:56.266Z,27.00
2022-10-14T20:42:24.208Z,27.10
2022-10-14T20:44:53.476Z,27.10
2022-10-14T20:47:23.019Z,27.10
2022-10-14T20:49:51.164Z,27.10
2022-10-14T20:52:19.113Z,27.20
2022-10-14T20:54:47.231Z,26.90
2022-10-14T20:57:16.296Z,26.60
2022-10-14T20:59:44.247Z,26.70
2022-10-14T21:02:17.339Z,26.90
2022-10-14T21:04:48.479Z,26.90
2022-10-14T21:07:16.594Z,26.60
2022-10-14T21:09:44.712Z,26.50
2022-10-14T21:12:12.644Z,26.00
2022-10-14T21:14:40.618Z,26.50
2022-10-14T21:17:08.847Z,26.70
2022-10-14T21:19:38.454Z,26.70
2022-10-14T21:22:06.353Z,27.00
2022-10-14T21:24:36.050Z,26.80
2022-10-14T21:27:03.996Z,27.10
2022-10-14T21:29:33.413Z,27.10
2022-10-14T21:32:02.395Z,27.20
2022-10-14T21:34:33.013Z,27.30
2022-10-14T21:37:02.384Z,27.20
2022-10-14T21:39:30.387Z,27.10
2022-10-14T21:42:00.017Z,26.70
2022-10-14T21:44:27.936Z,26.80
2022-10-14T21:46:55.844Z,26.80
2022-10-14T21:49:23.951Z,26.70
2022-10-14T21:51:54.783Z,26.70
2022-10-14T21:54:24.722Z,26.80
2022-10-14T21:56:52.712Z,26.80
2022-10-14T21:59:20.658Z,26.40
2022-10-14T22:01:48.607Z,26.80
2022-10-14T22:04:16.536Z,26.80
2022-10-14T22:06:44.486Z,26.20
2022-10-14T22:09:12.407Z,26.30
2022-10-14T22:11:42.600Z,25.90
2022-10-14T22:14:13.583Z,26.40
2022-10-14T22:16:41.810Z,26.70
2022-10-14T22:19:11.284Z,26.80
2022-10-14T22:21:41.208Z,26.90
2022-10-14T22:24:10.756Z,26.80
2022-10-14T22:26:40.361Z,27.00
2022-10-14T22:29:13.640Z,27.00
2022-10-14T22:31:41.999Z,26.70
2022-10-14T22:34:13.500Z,26.50
2022-10-14T22:36:41.868Z,26.80
2022-10-14T22:39:13.765Z,26.60
2022-10-14T22:41:41.743Z,26.20
2022-10-14T22:44:11.488Z,26.30
2022-10-14T22:46:40.280Z,26.10
2022-10-14T22:49:08.325Z,26.20
2022-10-14T22:51:41.146Z,25.80
2022-10-14T22:54:09.516Z,26.10
2022-10-14T22:56:38.137Z,26.20
2022-10-14T22:59:08.528Z,26.50
2022-10-14T23:01:38.321Z,26.60
2022-10-14T23:04:06.617Z,26.70
2022-10-14T23:06:34.602Z,26.70
2022-10-14T23:09:02.631Z,26.90
2022-10-14T23:11:32.182Z,26.90
2022-10-14T23:14:03.060Z,27.00
2022-10-14T23:16:36.911Z,27.10
2022-10-14T23:19:04.883Z,26.90
2022-10-14T23:21:34.330Z,26.80
2022-10-14T23:24:04.544Z,26.50
2022-10-14T23:26:34.454Z,26.20
2022-10-14T23:29:05.068Z,25.90
2022-10-14T23:31:34.749Z,26.00
2022-10-14T23:34:06.914Z,26.10
2022-10-14T23:36:35.154Z,26.00
2022-10-14T23:39:03.153Z,25.80
2022-10-14T23:41:31.092Z,25.60
2022-10-14T23:43:59.039Z,25.40
2022-10-14T23:46:26.978Z,25.50
2022-10-14T23:49:07.592Z,25.40
2022-10-14T23:51:43.567Z,25.50
2022-10-14T23:54:11.485Z,25.20
2022-10-14T23:56:39.819Z,25.30
2022-10-14T23:59:19.173Z,25.40
